Time;durP1;ratioP1;P1;durP2;ratioP2;P2;SDS_P1;SDS_P2;PMS_P1;PMS_P2;Temp;Humidity;BMP_temperature;BMP_pressure;BME280_temperature;BME280_humidity;BME280_pressure;Samples;Min_cycle;Max_cycle;Signal;HPM_P1;HPM_P2
2022/01/08 00:00:46;;;;;;;1.42;1.42;;;;;;;2.85;45.61;100212.66;4396707;32;20288;-80
2022/01/08 00:03:14;;;;;;;1.10;1.10;;;;;;;2.90;45.07;100213.75;4406821;32;20315;-79
2022/01/08 00:05:41;;;;;;;1.10;1.10;;;;;;;2.83;44.90;100214.22;4398537;32;20441;-80
2022/01/08 00:08:08;;;;;;;1.48;1.48;;;;;;;2.87;45.47;100200.81;4398759;32;20648;-81
2022/01/08 00:10:35;;;;;;;1.40;1.40;;;;;;;2.92;45.06;100199.38;4404716;32;20281;-80
2022/01/08 00:13:04;;;;;;;1.30;1.30;;;;;;;3.26;44.20;100197.75;4401142;32;20275;-80
2022/01/08 00:15:32;;;;;;;0.95;0.95;;;;;;;3.13;44.65;100195.38;4398766;32;20284;-81
2022/01/08 00:18:00;;;;;;;1.13;1.13;;;;;;;3.15;44.58;100198.88;4399873;32;20311;-81
2022/01/08 00:20:30;;;;;;;1.90;1.80;;;;;;;3.14;44.78;100203.94;4405383;32;20329;-81
2022/01/08 00:22:57;;;;;;;1.20;1.20;;;;;;;3.39;45.19;100208.62;4398922;32;20279;-80
2022/01/08 00:25:24;;;;;;;1.10;1.10;;;;;;;3.28;44.38;100204.62;4398945;32;20287;-81
2022/01/08 00:27:51;;;;;;;1.80;1.70;;;;;;;3.24;44.85;100194.22;4402104;32;20634;-81
2022/01/08 00:30:18;;;;;;;1.10;1.10;;;;;;;3.13;45.24;100200.50;4405546;32;20347;-80
2022/01/08 00:32:45;;;;;;;0.98;0.98;;;;;;;3.28;44.53;100200.38;4404749;32;20266;-78
2022/01/08 00:35:12;;;;;;;1.17;1.17;;;;;;;2.98;45.02;100192.91;4414051;32;20299;-81
2022/01/08 00:37:40;;;;;;;0.88;0.88;;;;;;;3.26;44.48;100182.41;4412916;32;20334;-81
2022/01/08 00:40:08;;;;;;;1.15;1.15;;;;;;;3.15;44.43;100183.53;4415231;32;20271;-80
2022/01/08 00:42:36;;;;;;;1.10;1.10;;;;;;;3.23;44.57;100166.91;4420784;32;20681;-80
2022/01/08 00:45:06;;;;;;;1.30;1.30;;;;;;;3.06;45.00;100175.38;4424575;32;20297;-81
2022/01/08 00:47:34;;;;;;;1.40;1.40;;;;;;;3.13;44.90;100180.03;4413234;32;20706;-79
2022/01/08 00:50:05;;;;;;;1.20;1.20;;;;;;;3.36;44.27;100167.53;4413775;32;20683;-81
2022/01/08 00:52:32;;;;;;;0.93;0.93;;;;;;;3.14;45.30;100163.88;4413786;32;20281;-81
2022/01/08 00:54:59;;;;;;;1.00;1.00;;;;;;;3.22;44.96;100162.59;4399129;32;20673;-82
2022/01/08 00:57:26;;;;;;;0.73;0.73;;;;;;;3.21;44.78;100158.25;4413792;32;20633;-80
2022/01/08 00:59:53;;;;;;;0.80;0.80;;;;;;;3.31;44.87;100158.72;4422478;32;20294;-81
2022/01/08 01:02:20;;;;;;;1.33;1.33;;;;;;;3.54;44.25;100163.28;4402661;32;20339;-82
2022/01/08 01:04:47;;;;;;;0.80;0.80;;;;;;;3.18;44.77;100153.00;4413800;32;20295;-81
2022/01/08 01:07:14;;;;;;;0.98;0.98;;;;;;;3.22;44.95;100149.81;4414643;32;20268;-80
2022/01/08 01:09:41;;;;;;;1.30;1.30;;;;;;;3.34;44.54;100148.66;4411496;32;20292;-80
2022/01/08 01:12:09;;;;;;;1.20;1.20;;;;;;;3.25;44.68;100144.84;4400668;32;20278;-81
2022/01/08 01:14:56;;;;;;;1.15;1.15;;;;;;;3.06;45.55;100126.78;4406324;32;20283;-80
2022/01/08 01:17:23;;;;;;;2.10;2.00;;;;;;;2.84;45.79;100118.84;4413309;32;20282;-80
2022/01/08 01:19:50;;;;;;;1.20;1.20;;;;;;;2.86;45.88;100127.47;4413600;32;20282;-81
2022/01/08 01:22:20;;;;;;;1.45;1.45;;;;;;;2.90;45.52;100129.38;4413113;32;20307;-81
2022/01/08 01:24:49;;;;;;;2.08;1.98;;;;;;;2.99;45.45;100128.16;4413488;32;20350;-81
2022/01/08 01:30:15;;;;;;;1.70;1.60;;;;;;;2.78;45.90;100120.28;4380068;32;20287;-80
2022/01/08 01:49:10;;;;;;;1.67;1.57;;;;;;;2.77;46.34;100108.28;4405075;32;20259;-81
2022/01/08 01:51:37;;;;;;;1.70;1.60;;;;;;;2.63;46.60;100099.06;4412262;32;20292;-80
2022/01/08 01:54:04;;;;;;;1.48;1.48;;;;;;;2.92;45.43;100092.00;4400450;32;20567;-81
2022/01/08 01:56:31;;;;;;;1.92;1.83;;;;;;;3.10;44.95;100098.03;4399344;32;20275;-79
2022/01/08 01:58:58;;;;;;;2.00;1.90;;;;;;;2.88;45.48;100090.97;4401670;32;20314;-81
2022/01/08 02:01:25;;;;;;;2.00;1.90;;;;;;;2.89;45.17;100092.72;4406171;32;20280;-81
2022/01/08 02:03:53;;;;;;;2.60;2.50;;;;;;;2.79;45.23;100091.37;4403617;32;20266;-80
2022/01/08 02:06:20;;;;;;;2.42;2.33;;;;;;;2.80;44.82;100093.12;4418559;32;20299;-80
2022/01/08 02:08:47;;;;;;;2.15;2.05;;;;;;;2.52;45.33;100095.03;4399657;32;21108;-79
2022/01/08 02:11:17;;;;;;;2.37;2.28;;;;;;;2.15;46.67;100088.00;4402900;32;20283;-79
2022/01/08 02:13:45;;;;;;;2.80;2.62;;;;;;;2.56;45.48;100086.75;4404843;32;20640;-80
2022/01/08 02:16:18;;;;;;;26.50;24.00;;;;;;;2.24;46.21;100083.41;4410672;32;20295;-80
2022/01/08 02:18:50;;;;;;;138.47;121.77;;;;;;;2.53;45.20;100084.06;4397775;32;20389;-81
2022/01/08 02:21:17;;;;;;;154.25;128.02;;;;;;;2.44;45.47;100081.00;4405223;32;20300;-81
2022/01/08 02:23:43;;;;;;;173.85;134.63;;;;;;;2.45;45.41;100082.75;4402057;32;21067;-81
2022/01/08 02:26:11;;;;;;;171.43;133.95;;;;;;;2.36;45.45;100079.72;4399829;32;20346;-81
2022/01/08 02:28:39;;;;;;;150.30;128.00;;;;;;;2.42;45.24;100072.38;4405988;32;20261;-81
2022/01/08 02:31:06;;;;;;;152.43;128.50;;;;;;;2.54;44.98;100073.03;4397924;32;20363;-79
2022/01/08 02:33:34;;;;;;;141.77;123.75;;;;;;;2.43;45.39;100074.16;4410994;32;20584;-81
2022/01/08 02:36:06;;;;;;;137.18;122.37;;;;;;;2.41;44.98;100066.41;4397895;32;20305;-81
2022/01/08 02:38:34;;;;;;;172.57;136.00;;;;;;;2.50;44.91;100066.00;4398497;32;20322;-81
2022/01/08 02:41:03;;;;;;;170.98;134.27;;;;;;;2.47;44.60;100070.94;4417960;32;20273;-81
2022/01/08 02:43:34;;;;;;;206.95;145.12;;;;;;;2.31;45.50;100062.50;4414060;32;20372;-81
2022/01/08 02:46:01;;;;;;;187.77;138.40;;;;;;;2.36;45.72;100066.94;4414716;32;20299;-79
2022/01/08 02:48:28;;;;;;;219.48;148.25;;;;;;;2.46;45.40;100069.22;4414511;32;20835;-81
2022/01/08 02:50:57;;;;;;;227.68;150.20;;;;;;;1.92;46.13;100070.59;4423337;32;20275;-81
2022/01/08 02:53:24;;;;;;;203.18;145.12;;;;;;;2.10;45.63;100066.44;4414452;32;20299;-80
2022/01/08 02:55:51;;;;;;;194.43;141.43;;;;;;;2.07;45.76;100058.63;4419504;32;20292;-79
2022/01/08 02:58:18;;;;;;;203.57;144.62;;;;;;;2.20;45.57;100055.94;4417737;32;20645;-80
2022/01/08 03:00:45;;;;;;;237.68;150.98;;;;;;;2.27;45.49;100062.25;4406966;32;20296;-80
2022/01/08 03:03:13;;;;;;;269.60;161.05;;;;;;;2.33;44.89;100060.91;4418904;32;20293;-79
2022/01/08 03:05:40;;;;;;;288.33;171.32;;;;;;;2.25;44.62;100062.16;4428266;32;20707;-80
2022/01/08 03:08:07;;;;;;;305.08;179.98;;;;;;;1.93;45.46;100059.59;4429705;32;20300;-79
2022/01/08 03:10:34;;;;;;;367.10;197.50;;;;;;;1.85;45.68;100057.50;4425184;32;20270;-80
2022/01/08 03:13:02;;;;;;;367.23;202.45;;;;;;;1.71;45.96;100058.41;4424063;32;20280;-81
2022/01/08 03:15:33;;;;;;;406.37;205.25;;;;;;;1.64;45.54;100056.31;4414400;32;20622;-81
2022/01/08 03:17:59;;;;;;;428.03;208.60;;;;;;;1.87;45.80;100052.47;4414005;32;20269;-80
2022/01/08 03:20:27;;;;;;;389.90;205.37;;;;;;;2.00;44.68;100059.09;4421843;32;20280;-80
2022/01/08 03:23:01;;;;;;;434.13;206.30;;;;;;;1.84;45.17;100065.94;4425873;32;20314;-81
2022/01/08 03:25:29;;;;;;;515.83;216.65;;;;;;;1.71;45.68;100058.41;4414117;32;20301;-82
2022/01/08 03:27:57;;;;;;;35.42;22.87;;;;;;;1.50;46.16;100057.22;4399757;32;20274;-82
2022/01/08 03:30:25;;;;;;;33.25;24.15;;;;;;;1.36;46.23;100054.78;4417252;32;21050;-79
2022/01/08 03:32:52;;;;;;;38.20;25.43;;;;;;;0.74;48.18;100069.91;4424806;32;20273;-80
2022/01/08 03:35:19;;;;;;;36.60;24.12;;;;;;;0.95;47.76;100069.41;4421020;32;20399;-81
2022/01/08 03:37:47;;;;;;;35.70;23.92;;;;;;;0.87;47.83;100076.62;4414442;32;20261;-80
2022/01/08 03:40:14;;;;;;;34.17;24.05;;;;;;;0.91;47.50;100078.53;4414324;32;20290;-80
2022/01/08 03:42:42;;;;;;;32.13;22.90;;;;;;;0.67;48.03;100067.78;4427859;32;20333;-80
2022/01/08 03:45:09;;;;;;;33.17;22.73;;;;;;;0.72;48.26;100071.50;4417043;32;20594;-81
2022/01/08 03:50:16;;;;;;;30.25;21.60;;;;;;;1.08;47.31;100076.97;4416176;32;20743;-80
2022/01/08 03:52:45;;;;;;;30.48;21.98;;;;;;;0.54;48.34;100081.47;4422061;32;20296;-81
2022/01/08 03:55:12;;;;;;;30.35;23.00;;;;;;;0.98;47.14;100084.87;4413194;32;20285;-79
2022/01/08 03:57:40;;;;;;;31.35;22.35;;;;;;;0.69;47.18;100076.41;4414779;32;20143;-81
2022/01/08 04:00:07;;;;;;;29.87;22.33;;;;;;;0.69;47.56;100078.94;4422369;32;20327;-80
2022/01/08 04:02:38;;;;;;;32.53;23.62;;;;;;;0.37;48.50;100072.81;4390323;32;20273;-80
2022/01/08 04:05:06;;;;;;;32.70;24.08;;;;;;;0.57;48.20;100081.63;4383114;32;20277;-80
2022/01/08 04:07:32;;;;;;;30.98;22.77;;;;;;;0.22;48.71;100077.87;4391971;32;20265;-81
2022/01/08 04:09:59;;;;;;;28.70;22.20;;;;;;;0.16;49.00;100071.50;4383877;32;20387;-82
2022/01/08 04:17:54;;;;;;;30.08;22.02;;;;;;;0.40;48.55;100057.72;4383804;32;20322;-80
2022/01/08 04:20:22;;;;;;;29.67;22.20;;;;;;;0.42;48.42;100055.28;4384004;32;20296;-81
2022/01/08 04:22:50;;;;;;;31.98;23.65;;;;;;;0.54;47.97;100050.91;4396155;32;20637;-81
2022/01/08 04:25:20;;;;;;;31.50;23.75;;;;;;;0.52;48.17;100046.53;4390910;32;20280;-81
2022/01/08 04:27:48;;;;;;;33.10;23.08;;;;;;;0.09;49.86;100041.38;4387477;32;20343;-80
2022/01/08 04:30:15;;;;;;;32.00;23.53;;;;;;;0.31;49.05;100046.12;4398597;32;20337;-80
2022/01/08 04:32:42;;;;;;;33.63;22.80;;;;;;;0.03;49.97;100043.56;4392126;32;20293;-79
2022/01/08 04:35:09;;;;;;;30.25;21.92;;;;;;;0.86;47.83;100034.97;4399085;32;20275;-80
2022/01/08 04:37:36;;;;;;;33.50;22.58;;;;;;;0.71;47.90;100028.97;4398538;32;20271;-80
2022/01/08 04:40:04;;;;;;;33.72;23.00;;;;;;;0.40;48.47;100027.16;4398527;32;21083;-79
2022/01/08 04:42:30;;;;;;;31.67;21.83;;;;;;;0.61;48.18;100011.41;4400900;32;20325;-79
2022/01/08 04:44:57;;;;;;;32.53;22.60;;;;;;;0.74;48.14;100013.87;4405519;32;20675;-79
2022/01/08 04:47:24;;;;;;;28.40;21.67;;;;;;;0.31;48.78;100016.44;4400323;32;20280;-79
2022/01/08 04:49:51;;;;;;;30.80;21.77;;;;;;;0.07;49.48;100020.09;4407299;32;20302;-81
2022/01/08 04:52:18;;;;;;;31.62;22.67;;;;;;;0.03;49.37;100011.34;4413982;32;20327;-79
2022/01/08 04:54:45;;;;;;;33.33;23.05;;;;;;;0.29;48.75;100012.03;4412471;32;20303;-81
2022/01/08 04:57:12;;;;;;;35.70;22.90;;;;;;;-0.14;49.82;100025.59;4408568;32;20321;-80
2022/01/08 04:59:39;;;;;;;32.95;21.37;;;;;;;0.32;48.72;100018.22;4419200;32;20324;-80
2022/01/08 05:02:06;;;;;;;30.70;21.52;;;;;;;-0.09;50.07;100008.97;4413981;32;20281;-80
2022/01/08 05:04:33;;;;;;;32.85;21.52;;;;;;;0.38;49.29;100002.41;4413230;32;20265;-79
2022/01/08 05:07:00;;;;;;;31.97;22.30;;;;;;;0.56;48.16;100000.06;4416995;32;20320;-80
2022/01/08 05:09:27;;;;;;;29.23;21.52;;;;;;;-0.22;50.30;100001.38;4418581;32;20331;-80
2022/01/08 05:11:56;;;;;;;28.80;21.95;;;;;;;-0.17;50.24;100001.66;4412063;32;20277;-80
2022/01/08 05:14:24;;;;;;;29.05;21.20;;;;;;;0.33;48.76;100007.22;4414404;32;20277;-80
2022/01/08 05:16:57;;;;;;;31.27;20.95;;;;;;;0.18;49.43;100013.94;4418718;32;20266;-81
2022/01/08 05:19:37;;;;;;;30.07;19.70;;;;;;;0.37;48.78;100011.72;4413622;32;20300;-79
2022/01/08 05:22:05;;;;;;;29.25;20.37;;;;;;;0.42;48.28;100005.25;4424541;32;20268;-80
2022/01/08 05:24:34;;;;;;;29.10;20.55;;;;;;;0.50;48.69;100007.34;4412295;32;20604;-80
2022/01/08 05:27:03;;;;;;;30.58;20.37;;;;;;;0.42;49.44;100010.31;4415323;32;20257;-80
2022/01/08 05:29:30;;;;;;;34.58;21.87;;;;;;;0.41;49.68;100013.63;4421298;32;20705;-81
2022/01/08 05:31:57;;;;;;;31.08;21.48;;;;;;;0.22;50.09;100020.97;4411901;32;20303;-81
2022/01/08 05:34:24;;;;;;;29.40;21.02;;;;;;;0.39;48.87;100010.16;4419272;32;20276;-80
2022/01/08 05:36:51;;;;;;;33.72;21.00;;;;;;;0.81;48.69;100010.88;4415370;32;20642;-81
2022/01/08 05:39:18;;;;;;;30.12;20.70;;;;;;;0.57;48.89;100014.53;4415679;32;20307;-79
2022/01/08 05:41:45;;;;;;;28.15;21.02;;;;;;;0.85;48.14;100017.03;4419212;32;21053;-79
2022/01/08 05:44:12;;;;;;;34.88;22.05;;;;;;;0.31;50.04;100015.56;4413227;32;20274;-81
2022/01/08 05:46:44;;;;;;;32.77;22.20;;;;;;;0.44;49.30;100008.72;4412366;32;20383;-80
2022/01/08 05:49:12;;;;;;;32.53;21.50;;;;;;;0.81;48.39;100005.78;4429411;32;20339;-80
2022/01/08 05:51:39;;;;;;;30.03;21.10;;;;;;;0.37;49.21;100006.63;4412915;32;20316;-80
2022/01/08 05:54:06;;;;;;;26.58;19.27;;;;;;;0.14;49.67;100014.56;4413172;32;20355;-81
2022/01/08 05:56:34;;;;;;;25.40;19.73;;;;;;;0.54;48.33;100009.28;4417907;32;20345;-81
2022/01/08 05:59:01;;;;;;;23.98;19.60;;;;;;;0.10;49.05;100020.28;4416486;32;20282;-81
2022/01/08 06:01:28;;;;;;;26.75;20.08;;;;;;;0.26;48.89;100022.94;4411211;32;20623;-80
2022/01/08 06:03:55;;;;;;;24.92;19.55;;;;;;;0.35;48.61;100033.69;4401599;32;20341;-81
2022/01/08 06:06:22;;;;;;;26.60;18.98;;;;;;;0.30;48.40;100040.16;4404590;32;20259;-78
2022/01/08 06:08:49;;;;;;;25.58;18.98;;;;;;;0.64;47.47;100026.87;4398039;32;20288;-79
2022/01/08 06:11:16;;;;;;;26.23;19.02;;;;;;;0.16;48.67;100046.06;4397712;32;20730;-81
2022/01/08 06:13:43;;;;;;;26.00;19.33;;;;;;;0.34;47.98;100042.09;4400384;32;20362;-81
2022/01/08 06:16:11;;;;;;;25.02;18.25;;;;;;;0.19;48.54;100051.34;4406107;32;20312;-81
2022/01/08 06:18:39;;;;;;;23.77;17.85;;;;;;;0.26;48.77;100058.59;4407017;32;20296;-81
2022/01/08 06:21:06;;;;;;;24.00;17.90;;;;;;;0.12;48.83;100069.56;4400013;32;20271;-80
2022/01/08 06:23:33;;;;;;;21.45;16.60;;;;;;;0.37;47.83;100051.56;4407919;32;20273;-81
2022/01/08 06:26:00;;;;;;;24.92;17.80;;;;;;;0.18;48.28;100059.78;4399736;32;21101;-80
2022/01/08 06:28:27;;;;;;;26.95;17.87;;;;;;;0.10;48.29;100056.78;4418150;32;20282;-82
2022/01/08 06:30:54;;;;;;;27.50;19.20;;;;;;;0.04;48.60;100055.53;4407136;32;20610;-80
2022/01/08 06:33:21;;;;;;;26.25;18.52;;;;;;;0.01;49.06;100052.78;4401928;32;20285;-80
2022/01/08 06:35:51;;;;;;;23.45;18.52;;;;;;;0.22;48.18;100047.34;4408191;32;20257;-79
2022/01/08 06:38:18;;;;;;;23.98;17.45;;;;;;;0.15;48.79;100050.28;4425789;32;20292;-82
2022/01/08 06:40:45;;;;;;;22.75;16.77;;;;;;;-0.27;49.59;100048.53;4425887;32;20329;-80
2022/01/08 06:43:12;;;;;;;22.23;16.63;;;;;;;0.02;48.83;100052.00;4421499;32;20348;-80
2022/01/08 06:45:40;;;;;;;26.08;19.67;;;;;;;-0.04;48.61;100047.41;4415387;32;20328;-79
2022/01/08 06:48:07;;;;;;;29.37;20.58;;;;;;;-0.38;49.36;100049.50;4422767;32;20285;-80
2022/01/08 06:50:34;;;;;;;30.55;23.55;;;;;;;0.21;48.18;100037.06;4414719;32;20306;-79
2022/01/08 06:53:01;;;;;;;32.92;24.63;;;;;;;0.13;48.77;100040.81;4416941;32;20323;-80
2022/01/08 06:55:28;;;;;;;25.23;19.10;;;;;;;0.16;49.26;100046.06;4419180;32;20326;-79
2022/01/08 06:57:56;;;;;;;26.52;18.87;;;;;;;0.07;48.92;100043.00;4414330;32;20269;-79
2022/01/08 07:00:23;;;;;;;27.10;19.52;;;;;;;0.04;48.98;100040.25;4422855;32;20299;-80
2022/01/08 07:02:50;;;;;;;32.10;20.85;;;;;;;-0.07;49.44;100040.44;4418715;32;20272;-78
2022/01/08 07:05:17;;;;;;;34.03;22.67;;;;;;;0.36;48.62;100035.44;4423447;32;20276;-77
2022/01/08 07:07:44;;;;;;;35.53;23.20;;;;;;;-0.04;48.77;100038.09;4429917;32;20280;-79
2022/01/08 07:10:11;;;;;;;39.05;27.13;;;;;;;-0.33;49.77;100037.97;4427459;32;20299;-77
2022/01/08 07:12:38;;;;;;;36.67;28.38;;;;;;;0.01;49.73;100029.88;4428958;32;20620;-76
2022/01/08 07:15:06;;;;;;;33.10;25.27;;;;;;;-0.20;50.14;100025.22;4424304;32;20267;-78
2022/01/08 07:17:33;;;;;;;31.42;22.30;;;;;;;0.41;48.92;100013.63;4421117;32;20301;-77
2022/01/08 07:20:00;;;;;;;31.33;20.73;;;;;;;0.54;48.06;100014.38;4419737;32;20267;-79
2022/01/08 07:22:28;;;;;;;32.05;22.90;;;;;;;0.40;48.43;100017.00;4419378;32;20280;-76
2022/01/08 07:24:55;;;;;;;32.35;21.90;;;;;;;0.55;48.46;100021.25;4427738;32;20312;-80
2022/01/08 07:27:22;;;;;;;31.08;21.40;;;;;;;0.78;47.56;100014.94;4424977;32;20272;-78
2022/01/08 07:29:49;;;;;;;37.10;22.50;;;;;;;1.24;46.53;100003.09;4421800;32;20285;-78
2022/01/08 07:32:16;;;;;;;39.20;21.87;;;;;;;1.49;45.94;100004.47;4419372;32;20293;-78
2022/01/08 07:34:42;;;;;;;29.70;20.45;;;;;;;1.51;46.15;100007.97;4422349;32;20288;-78
2022/01/08 07:37:09;;;;;;;25.67;17.85;;;;;;;1.43;46.66;100014.31;4426875;32;20359;-77
2022/01/08 07:39:37;;;;;;;25.98;19.50;;;;;;;1.67;46.07;100009.69;4422944;32;20278;-79
2022/01/08 07:42:05;;;;;;;29.77;20.25;;;;;;;1.65;45.71;100006.16;4419423;32;20271;-80
2022/01/08 07:44:32;;;;;;;29.08;19.20;;;;;;;1.51;46.78;100007.97;4417486;32;20316;-79
2022/01/08 07:47:00;;;;;;;29.50;20.03;;;;;;;1.06;47.22;100018.25;4417852;32;20278;-78
2022/01/08 07:49:27;;;;;;;30.30;22.48;;;;;;;0.92;47.01;100014.91;4418686;32;20299;-79
2022/01/08 07:51:54;;;;;;;28.87;22.52;;;;;;;1.07;47.01;100009.81;4416481;32;20281;-79
2022/01/08 07:54:21;;;;;;;50.33;30.40;;;;;;;1.49;46.43;99994.25;4422674;32;20289;-79
2022/01/08 07:56:48;;;;;;;43.87;30.45;;;;;;;1.70;46.09;99995.41;4428081;32;20280;-79
2022/01/08 07:59:15;;;;;;;33.60;24.48;;;;;;;1.68;45.85;99994.44;4411782;32;20677;-81
2022/01/08 08:01:42;;;;;;;41.63;29.20;;;;;;;1.88;45.71;99990.41;4415961;32;20994;-81
2022/01/08 08:04:09;;;;;;;47.20;32.53;;;;;;;2.26;45.32;99982.19;4420654;32;20261;-81
2022/01/08 08:06:44;;;;;;;48.63;32.55;;;;;;;2.26;44.73;99982.19;4414323;32;20273;-81
2022/01/08 08:09:11;;;;;;;43.72;31.42;;;;;;;2.67;44.25;99977.41;4403079;32;20270;-80
2022/01/08 08:11:38;;;;;;;47.60;32.08;;;;;;;2.77;43.86;99980.50;4400891;32;20402;-80
2022/01/08 08:14:04;;;;;;;61.13;38.57;;;;;;;3.29;42.96;99977.03;4405473;32;20290;-80
2022/01/08 08:16:32;;;;;;;70.35;42.45;;;;;;;3.10;43.43;99976.97;4407169;32;20297;-80
2022/01/08 08:18:59;;;;;;;63.78;39.53;;;;;;;3.61;42.63;99968.28;4399517;32;20346;-80
2022/01/08 08:21:25;;;;;;;56.80;38.58;;;;;;;4.01;41.80;99957.25;4400562;32;20320;-81
2022/01/08 08:23:54;;;;;;;57.10;39.78;;;;;;;4.10;41.49;99949.97;4407166;32;20693;-82
2022/01/08 08:26:20;;;;;;;47.90;34.78;;;;;;;3.97;41.24;99946.00;4399119;32;20380;-81
2022/01/08 08:28:47;;;;;;;28.52;22.67;;;;;;;4.61;40.26;99953.00;4403816;32;20635;-81
2022/01/08 08:31:14;;;;;;;36.40;28.00;;;;;;;4.51;40.05;99953.44;4371005;32;895509;-82
2022/01/08 08:33:41;;;;;;;26.80;21.45;;;;;;;3.83;41.73;99951.31;4398837;32;20348;-81
2022/01/08 08:36:08;;;;;;;27.87;21.50;;;;;;;4.11;41.06;99938.91;4400543;32;20690;-82
2022/01/08 08:38:35;;;;;;;26.35;20.30;;;;;;;4.33;40.93;99934.72;4405235;32;20168;-81
2022/01/08 08:41:02;;;;;;;23.98;19.55;;;;;;;4.16;41.78;99940.00;4405105;32;20282;-83
2022/01/08 08:43:29;;;;;;;23.95;19.37;;;;;;;3.69;43.27;99936.22;4409402;32;20271;-81
2022/01/08 08:45:56;;;;;;;28.87;22.25;;;;;;;3.41;42.62;99935.78;4398654;32;20690;-82
2022/01/08 08:48:23;;;;;;;27.50;22.77;;;;;;;3.69;42.01;99943.91;4399130;32;20754;-81
2022/01/08 08:50:50;;;;;;;32.50;24.42;;;;;;;3.22;44.52;99940.06;4400313;32;20958;-81
2022/01/08 08:53:17;;;;;;;109.70;60.33;;;;;;;3.20;44.28;99944.22;4402214;32;20283;-82
2022/01/08 08:55:44;;;;;;;120.47;65.10;;;;;;;3.58;43.92;99954.47;4404766;32;20328;-81
2022/01/08 08:58:11;;;;;;;71.20;46.40;;;;;;;3.37;44.32;99954.34;4398463;32;20331;-82
2022/01/08 09:00:39;;;;;;;62.80;45.97;;;;;;;3.59;43.91;99956.22;4398504;32;20350;-80
2022/01/08 09:03:07;;;;;;;56.15;38.72;;;;;;;3.31;44.67;99964.31;4398263;32;20338;-80
2022/01/08 09:05:35;;;;;;;56.45;38.08;;;;;;;3.26;45.79;99952.19;4412079;32;20362;-80
2022/01/08 09:08:04;;;;;;;37.63;27.27;;;;;;;3.45;44.99;99948.78;4408802;32;20265;-80
2022/01/08 09:10:32;;;;;;;36.92;26.37;;;;;;;3.45;44.78;99937.69;4410860;32;20327;-87
2022/01/08 09:13:00;;;;;;;44.22;27.52;;;;;;;3.14;45.74;99946.47;4400962;32;20290;-81
2022/01/08 09:15:28;;;;;;;33.67;28.50;;;;;;;3.35;45.15;99940.59;4397821;32;20268;-82
2022/01/08 09:17:57;;;;;;;29.85;26.00;;;;;;;3.53;44.03;99940.59;4402119;32;20592;-79
2022/01/08 09:20:28;;;;;;;31.62;25.10;;;;;;;3.43;43.56;99944.41;4409237;32;20298;-82
2022/01/08 09:22:56;;;;;;;29.80;26.23;;;;;;;3.58;43.90;99934.88;4391512;32;20257;-80
2022/01/08 09:25:23;;;;;;;40.58;36.58;;;;;;;3.71;43.66;99934.63;4407160;32;20631;-81
2022/01/08 09:27:50;;;;;;;38.63;30.20;;;;;;;4.02;42.91;99937.66;4404861;32;20319;-85
2022/01/08 09:30:17;;;;;;;32.22;25.40;;;;;;;4.01;42.88;99925.66;4402876;32;20287;-82
2022/01/08 09:32:44;;;;;;;33.22;26.73;;;;;;;3.63;44.72;99927.41;4402644;32;20261;-83
2022/01/08 09:35:14;;;;;;;31.57;25.93;;;;;;;3.79;44.34;99921.28;4392622;32;20768;-83
2022/01/08 09:37:41;;;;;;;32.10;25.37;;;;;;;3.84;44.00;99918.13;4404627;32;20267;-83
2022/01/08 09:40:12;;;;;;;73.22;65.28;;;;;;;3.91;43.71;99914.12;4395481;32;20338;-81
2022/01/08 09:42:43;;;;;;;94.40;83.75;;;;;;;3.64;44.45;99909.56;4401791;32;20414;-81
2022/01/08 09:45:11;;;;;;;38.85;31.73;;;;;;;3.52;46.13;99914.12;4407674;32;20309;-81
2022/01/08 09:47:38;;;;;;;46.35;34.60;;;;;;;3.65;44.45;99902.75;4404928;32;20274;-80
2022/01/08 09:50:06;;;;;;;51.30;36.20;;;;;;;3.82;43.95;99904.38;4396099;32;20635;-81
2022/01/08 09:52:34;;;;;;;46.95;34.83;;;;;;;3.84;44.33;99896.75;4400145;32;20840;-79
2022/01/08 09:55:00;;;;;;;47.10;34.50;;;;;;;3.89;43.98;99898.72;4399526;32;20289;-82
2022/01/08 09:57:28;;;;;;;49.53;38.13;;;;;;;3.91;43.39;99903.91;4399619;32;20287;-83
2022/01/08 09:59:55;;;;;;;52.40;40.37;;;;;;;3.90;44.32;99902.16;4395710;32;20332;-84
2022/01/08 10:02:23;;;;;;;48.50;36.83;;;;;;;4.01;44.22;99905.16;4399663;32;20278;-84
2022/01/08 10:04:51;;;;;;;45.53;32.40;;;;;;;3.86;44.04;99896.03;4400376;32;20739;-82
2022/01/08 10:07:26;;;;;;;51.57;34.80;;;;;;;3.83;45.21;99895.91;4394199;32;20340;-82
2022/01/08 10:10:17;;;;;;;45.53;35.58;;;;;;;4.39;44.19;99888.84;4395911;32;20275;-79
2022/01/08 10:12:48;;;;;;;38.78;27.98;;;;;;;4.61;43.33;99883.78;4401769;32;21056;-80
2022/01/08 10:18:09;;;;;;;52.95;43.83;;;;;;;4.38;44.01;99872.59;4402894;32;20300;-79
2022/01/08 10:20:38;;;;;;;50.30;35.50;;;;;;;4.58;44.35;99870.84;4410144;32;20285;-83
2022/01/08 10:23:15;;;;;;;58.47;38.87;;;;;;;4.52;44.00;99870.59;4396365;32;21020;-82
2022/01/08 10:25:54;;;;;;;57.55;41.95;;;;;;;4.38;44.93;99871.75;4405695;32;20293;-83
2022/01/08 10:28:40;;;;;;;133.48;48.85;;;;;;;4.55;43.95;99857.91;4402119;32;20317;-80
2022/01/08 10:31:21;;;;;;;70.50;50.70;;;;;;;4.37;44.25;99859.72;4401226;32;20365;-80
2022/01/08 10:33:49;;;;;;;52.63;40.43;;;;;;;4.41;43.89;99867.59;4396223;32;20357;-81
2022/01/08 10:36:25;;;;;;;44.83;33.17;;;;;;;4.46;43.95;99870.34;4397014;32;20432;-86
2022/01/08 10:38:54;;;;;;;39.10;30.27;;;;;;;4.65;43.79;99872.84;4401828;32;20330;-87
2022/01/08 10:41:23;;;;;;;35.65;28.65;;;;;;;4.50;43.62;99872.25;4395722;32;20325;-82
2022/01/08 10:44:06;;;;;;;30.37;24.33;;;;;;;4.26;45.27;99866.09;4404208;32;20339;-83
2022/01/08 10:46:33;;;;;;;38.10;25.73;;;;;;;4.37;44.19;99864.84;4395072;32;20210;-84
2022/01/08 10:49:02;;;;;;;32.10;25.75;;;;;;;4.33;44.38;99866.41;4395741;32;20271;-83
2022/01/08 10:51:38;;;;;;;30.60;22.95;;;;;;;4.48;43.88;99873.84;4399924;32;20933;-80
2022/01/08 10:54:15;;;;;;;34.50;24.08;;;;;;;4.59;43.24;99872.59;4397989;32;20199;-80
2022/01/08 10:56:46;;;;;;;34.03;24.12;;;;;;;4.57;42.92;99869.09;4395528;32;20222;-79
2022/01/08 10:59:24;;;;;;;34.63;25.48;;;;;;;4.35;44.26;99871.63;4403744;32;20172;-78
2022/01/08 11:01:58;;;;;;;32.35;23.58;;;;;;;4.43;43.89;99870.22;4395465;32;20227;-78
2022/01/08 11:04:39;;;;;;;36.45;25.67;;;;;;;4.59;44.15;99877.72;4397629;32;20152;-78
2022/01/08 11:07:22;;;;;;;41.90;26.87;;;;;;;4.62;43.76;99866.72;4397986;32;20537;-78
2022/01/08 11:09:51;;;;;;;36.03;24.10;;;;;;;4.48;44.66;99863.59;4403663;32;20371;-79
2022/01/08 11:12:23;;;;;;;35.50;22.65;;;;;;;4.66;44.18;99864.34;4395368;32;20168;-78
2022/01/08 11:17:35;;;;;;;31.42;22.33;;;;;;;4.43;44.74;99854.84;4408996;32;20169;-80
2022/01/08 11:20:09;;;;;;;30.83;22.58;;;;;;;4.49;44.13;99859.34;4402226;32;20174;-78
2022/01/08 11:22:38;;;;;;;28.93;21.97;;;;;;;4.37;45.68;99854.59;4396016;32;20184;-77
2022/01/08 11:25:15;;;;;;;28.95;20.75;;;;;;;4.48;44.78;99858.47;4409445;32;20234;-78
2022/01/08 11:28:17;;;;;;;30.88;21.85;;;;;;;4.61;44.64;99855.59;4396655;32;20896;-78
2022/01/08 11:30:50;;;;;;;33.53;23.00;;;;;;;4.81;43.86;99858.06;4407356;32;20263;-79
2022/01/08 11:33:33;;;;;;;30.83;21.67;;;;;;;4.73;44.32;99859.47;4397224;32;20164;-80
2022/01/08 11:36:01;;;;;;;29.23;23.15;;;;;;;4.47;44.81;99855.84;4395039;32;20178;-80
2022/01/08 11:38:31;;;;;;;26.87;20.27;;;;;;;4.65;44.43;99852.31;4403584;32;20774;-81
2022/01/08 11:41:02;;;;;;;27.08;21.40;;;;;;;4.97;43.40;99850.16;4405823;32;20179;-78
2022/01/08 11:43:29;;;;;;;27.15;20.70;;;;;;;4.85;43.56;99854.81;4399053;32;20327;-78
2022/01/08 11:46:02;;;;;;;27.20;22.52;;;;;;;5.10;42.50;99852.38;4402294;32;20179;-78
2022/01/08 11:48:45;;;;;;;27.50;23.33;;;;;;;4.85;43.30;99854.81;4394946;32;20199;-78
2022/01/08 11:51:20;;;;;;;25.83;20.60;;;;;;;5.17;42.71;99847.47;4401425;32;20168;-79
2022/01/08 11:53:58;;;;;;;27.30;20.73;;;;;;;4.96;43.03;99848.41;4395937;32;20165;-78
2022/01/08 11:56:29;;;;;;;23.80;19.00;;;;;;;4.98;42.98;99851.03;4397001;32;20141;-79
2022/01/08 11:59:02;;;;;;;27.00;19.58;;;;;;;5.02;42.86;99848.66;4395176;32;20506;-78
2022/01/08 12:01:29;;;;;;;28.10;21.10;;;;;;;5.14;42.65;99843.13;4394792;32;20230;-77